Time;durP1;ratioP1;P1;durP2;ratioP2;P2;SDS_P1;SDS_P2;PMS_P1;PMS_P2;Temp;Humidity;BMP_temperature;BMP_pressure;BME280_temperature;BME280_humidity;BME280_pressure;Samples;Min_cycle;Max_cycle;Signal;HPM_P1;HPM_P2
2022/10/12 00:01:08;;;;;;;;;10.25;6.25;;;;;12.93;56.84;101724.47;5023350;28;45510;-59
2022/10/12 00:03:34;;;;;;;;;5.33;5.33;;;;;12.90;57.16;101729.97;5025889;28;45280;-59
2022/10/12 00:06:15;;;;;;;;;8.00;5.00;;;;;12.84;57.15;101719.56;5016463;28;45765;-58
2022/10/12 00:08:43;;;;;;;;;3.67;3.67;;;;;12.82;57.15;101717.91;5020361;28;46169;-59
2022/10/12 00:11:14;;;;;;;;;7.00;4.00;;;;;12.80;56.88;101717.97;5025868;28;45233;-59
2022/10/12 00:13:39;;;;;;;;;6.33;6.33;;;;;12.82;57.04;101718.75;5028798;28;45633;-59
2022/10/12 00:16:07;;;;;;;;;6.33;6.33;;;;;12.79;56.89;101708.25;5021117;28;45672;-59
2022/10/12 00:18:33;;;;;;;;;6.67;4.67;;;;;12.84;56.78;101719.56;5021661;28;45468;-58
2022/10/12 00:21:00;;;;;;;;;7.50;6.75;;;;;12.79;57.14;101708.25;5034086;28;45578;-60
2022/10/12 00:23:26;;;;;;;;;8.00;7.00;;;;;12.76;57.44;101708.41;5023479;28;45465;-59
2022/10/12 00:25:51;;;;;;;;;9.75;8.50;;;;;12.78;57.22;101716.31;5029398;28;45464;-58
2022/10/12 00:28:16;;;;;;;;;10.50;8.00;;;;;12.73;57.06;101713.84;5034389;28;45431;-59
2022/10/12 00:30:42;;;;;;;;;7.00;7.00;;;;;12.76;57.13;101724.41;5032171;28;45429;-59
2022/10/12 00:33:07;;;;;;;;;8.00;7.00;;;;;12.67;57.41;101712.34;5028112;28;45653;-57
2022/10/12 00:35:33;;;;;;;;;7.67;6.67;;;;;12.75;57.52;101716.44;5031830;28;45432;-59
2022/10/12 00:37:58;;;;;;;;;4.67;4.67;;;;;12.75;57.13;101719.97;5027409;28;46078;-57
2022/10/12 00:40:23;;;;;;;;;8.00;7.00;;;;;12.74;57.06;101715.59;5016114;28;45411;-58
2022/10/12 00:42:49;;;;;;;;;13.00;8.00;;;;;12.76;57.75;101713.72;5023648;28;45485;-58
2022/10/12 00:45:15;;;;;;;;;5.33;2.00;;;;;12.79;57.69;101721.59;5023297;28;45617;-58
2022/10/12 00:47:47;;;;;;;;;13.00;8.25;;;;;12.77;57.46;101715.47;5026755;28;46216;-60
2022/10/12 00:50:33;;;;;;;;;9.75;7.00;;;;;12.69;57.62;101706.94;5033548;28;45481;-58
2022/10/12 00:53:10;;;;;;;;;12.00;8.50;;;;;12.72;57.91;101712.13;5013267;28;45557;-58
2022/10/12 00:55:48;;;;;;;;;7.75;7.75;;;;;12.71;57.56;101721.06;5021967;28;45352;-59
2022/10/12 00:58:15;;;;;;;;;9.00;7.50;;;;;12.70;57.43;101722.88;5029273;28;45525;-59
2022/10/12 01:00:41;;;;;;;;;9.25;6.25;;;;;12.74;57.54;101726.25;5050060;28;45430;-58
2022/10/12 01:03:09;;;;;;;;;9.00;5.67;;;;;12.74;57.66;101720.91;5018479;28;45331;-57
2022/10/12 01:05:35;;;;;;;;;6.33;6.00;;;;;12.72;57.81;101725.47;5031343;28;45430;-59
2022/10/12 01:08:01;;;;;;;;;8.75;8.00;;;;;12.74;57.55;101712.03;5016626;28;46336;-57
2022/10/12 01:10:27;;;;;;;;;9.00;7.00;;;;;12.64;57.63;101700.97;5019463;28;45740;-59
2022/10/12 01:12:53;;;;;;;;;7.33;4.67;;;;;12.71;57.57;101705.06;5027432;28;45293;-58
2022/10/12 01:15:18;;;;;;;;;7.75;7.00;;;;;12.72;57.82;101709.47;5025186;28;45559;-58
2022/10/12 01:17:46;;;;;;;;;13.00;8.50;;;;;12.72;58.05;101706.78;5024719;28;46343;-59
2022/10/12 01:20:33;;;;;;;;;9.50;8.00;;;;;12.70;57.61;101700.66;5038430;28;45361;-57
2022/10/12 01:23:04;;;;;;;;;14.00;9.00;;;;;12.72;58.03;101709.47;5035148;28;45498;-58
2022/10/12 01:26:13;;;;;;;;;7.75;6.00;;;;;12.72;58.11;101706.78;5018916;28;45336;-58
2022/10/12 01:29:01;;;;;;;;;8.00;6.00;;;;;12.72;58.16;101712.13;5031698;28;45415;-59
2022/10/12 01:31:32;;;;;;;;;12.00;9.00;;;;;12.69;57.87;101706.94;5034171;28;45635;-58
2022/10/12 01:34:09;;;;;;;;;13.33;9.00;;;;;12.61;58.17;101701.94;5036391;28;45400;-59
2022/10/12 01:37:01;;;;;;;;;9.00;9.00;;;;;12.56;58.41;101695.09;5028924;28;45554;-56
2022/10/12 01:39:36;;;;;;;;;8.00;7.00;;;;;12.56;58.76;101703.13;5015994;28;46329;-58
2022/10/12 01:42:06;;;;;;;;;4.67;4.67;;;;;12.51;59.17;101702.47;5018468;28;45392;-57
2022/10/12 01:44:32;;;;;;;;;15.00;10.00;;;;;12.45;59.00;101703.59;5023050;28;45552;-58
2022/10/12 01:46:57;;;;;;;;;6.00;3.33;;;;;12.44;58.67;101703.69;5019503;28;45209;-56
2022/10/12 01:49:29;;;;;;;;;7.50;6.75;;;;;12.44;58.71;101707.22;5033928;28;45537;-60
2022/10/12 01:52:11;;;;;;;;;7.50;7.50;;;;;12.41;58.68;101702.03;5037078;28;44777;-59
2022/10/12 01:54:55;;;;;;;;;7.75;7.75;;;;;12.40;58.64;101703.81;5034554;28;45422;-58
2022/10/12 01:57:23;;;;;;;;;10.25;6.75;;;;;12.40;58.90;101705.63;5036459;28;45355;-57
2022/10/12 02:00:11;;;;;;;;;10.75;8.50;;;;;12.38;58.82;101703.03;5024164;28;46359;-58
2022/10/12 02:03:14;;;;;;;;;10.25;8.00;;;;;12.38;58.90;101697.69;5023251;28;47017;-59
2022/10/12 02:05:49;;;;;;;;;8.75;6.75;;;;;12.36;58.85;101694.22;5027229;28;45469;-59
2022/10/12 02:08:20;;;;;;;;;7.00;7.00;;;;;12.36;58.71;101691.53;5032322;28;45468;-58
2022/10/12 02:11:03;;;;;;;;;8.67;7.67;;;;;12.38;58.50;101687.03;5022714;28;46316;-58
2022/10/12 02:13:35;;;;;;;;;7.50;6.75;;;;;12.39;58.88;101694.09;5016270;28;45548;-58
2022/10/12 02:16:05;;;;;;;;;7.75;6.25;;;;;12.32;58.90;101681.97;5016609;28;45498;-58
2022/10/12 02:18:33;;;;;;;;;8.00;8.00;;;;;12.35;58.87;101691.63;5021477;28;45529;-58
2022/10/12 02:20:59;;;;;;;;;4.33;4.33;;;;;12.34;59.07;101688.09;5021385;28;45542;-58
2022/10/12 02:23:27;;;;;;;;;8.67;7.00;;;;;12.30;58.79;101680.31;5036280;28;45585;-58
2022/10/12 02:25:52;;;;;;;;;5.50;5.25;;;;;12.34;58.90;101685.41;5050707;27;45813;-59
2022/10/12 02:28:22;;;;;;;;;9.33;7.33;;;;;12.35;58.71;101676.47;5036090;28;45498;-59
2022/10/12 02:31:01;;;;;;;;;8.50;7.75;;;;;12.33;59.00;101675.69;5035375;28;45363;-59
2022/10/12 02:33:37;;;;;;;;;6.33;4.00;;;;;12.35;59.00;101675.59;5033416;28;45609;-58
2022/10/12 02:36:11;;;;;;;;;8.00;6.00;;;;;12.35;59.02;101675.59;5022519;28;45489;-57
2022/10/12 02:38:55;;;;;;;;;7.00;5.50;;;;;12.33;59.26;101667.69;5029816;28;45491;-56
2022/10/12 02:41:28;;;;;;;;;6.75;5.50;;;;;12.26;59.04;101658.25;5033024;28;46169;-56
2022/10/12 02:43:58;;;;;;;;;6.00;6.00;;;;;12.26;59.05;101660.06;5035543;28;45339;-57
2022/10/12 02:46:26;;;;;;;;;6.67;5.00;;;;;12.28;59.32;101661.72;5035261;28;45278;-56
2022/10/12 02:48:54;;;;;;;;;7.50;6.00;;;;;12.29;59.04;101659.91;5035502;28;45494;-54
2022/10/12 02:51:21;;;;;;;;;9.00;7.25;;;;;12.29;58.84;101660.78;5029871;28;46170;-55
2022/10/12 02:53:47;;;;;;;;;7.50;7.50;;;;;12.29;59.44;101658.09;5033772;27;45553;-57
2022/10/12 02:56:14;;;;;;;;;8.67;8.00;;;;;12.25;59.33;101651.19;5035663;28;45606;-57
2022/10/12 02:58:43;;;;;;;;;7.00;7.00;;;;;12.24;59.24;101660.13;5033502;28;45572;-59
2022/10/12 03:01:09;;;;;;;;;9.75;7.00;;;;;12.23;59.14;101653.03;5011332;28;45410;-58
2022/10/12 03:03:34;;;;;;;;;9.00;9.00;;;;;12.22;59.50;101645.97;5022003;28;45400;-58
2022/10/12 03:06:00;;;;;;;;;8.00;6.25;;;;;12.23;59.71;101650.38;5020320;28;45463;-56
2022/10/12 03:08:25;;;;;;;;;7.75;7.75;;;;;12.22;59.29;101653.09;5034951;28;45394;-58
2022/10/12 03:10:51;;;;;;;;;8.75;7.00;;;;;12.22;59.34;101655.78;5039510;28;46763;-56
2022/10/12 03:13:16;;;;;;;;;7.75;7.75;;;;;12.14;59.57;101644.63;5032253;28;45216;-57
2022/10/12 03:15:42;;;;;;;;;9.25;7.75;;;;;12.18;59.55;101649.72;5017753;28;45237;-58
2022/10/12 03:18:07;;;;;;;;;11.00;8.00;;;;;12.18;59.70;101649.72;5028464;28;45308;-58
2022/10/12 03:20:32;;;;;;;;;10.50;7.00;;;;;12.18;59.47;101647.06;5026062;28;46387;-56
2022/10/12 03:22:58;;;;;;;;;9.00;7.25;;;;;12.16;59.48;101643.59;5026653;28;45544;-58
2022/10/12 03:25:23;;;;;;;;;6.75;3.75;;;;;12.14;60.10;101649.94;5024281;28;45740;-59
2022/10/12 03:27:49;;;;;;;;;7.75;7.75;;;;;12.10;59.53;101649.19;5032562;28;45268;-56
2022/10/12 03:30:14;;;;;;;;;8.00;7.50;;;;;12.10;59.99;101650.06;5031560;28;51140;-57
2022/10/12 03:32:40;;;;;;;;;8.50;7.25;;;;;12.11;59.98;101656.28;5035075;28;45248;-56
2022/10/12 03:35:06;;;;;;;;;9.50;9.00;;;;;12.04;59.91;101636.16;5023237;28;45458;-63
2022/10/12 03:37:33;;;;;;;;;10.75;7.50;;;;;12.05;60.06;101641.41;5016596;28;45281;-55
2022/10/12 03:39:58;;;;;;;;;12.50;10.00;;;;;12.08;60.17;101648.41;5043675;28;48231;-58
2022/10/12 03:42:23;;;;;;;;;8.75;7.00;;;;;12.07;60.13;101649.34;5030175;28;45239;-58
2022/10/12 03:44:49;;;;;;;;;3.25;3.25;;;;;12.05;60.70;101656.56;5031418;28;45464;-57
2022/10/12 03:47:15;;;;;;;;;8.25;6.50;;;;;11.97;60.47;101643.56;5036899;28;45317;-59
2022/10/12 03:49:40;;;;;;;;;3.00;2.00;;;;;12.00;60.42;101654.09;5017864;28;45407;-57
2022/10/12 03:52:06;;;;;;;;;9.00;7.75;;;;;11.98;60.41;101649.75;5015336;28;45261;-59
2022/10/12 03:54:31;;;;;;;;;9.00;8.00;;;;;11.98;60.60;101653.31;5018090;28;45372;-57
2022/10/12 03:56:56;;;;;;;;;8.50;4.25;;;;;11.97;60.61;101653.34;5021834;28;45529;-57
2022/10/12 03:59:22;;;;;;;;;7.25;7.00;;;;;11.97;60.48;101654.22;5049878;28;47812;-57
2022/10/12 04:01:47;;;;;;;;;12.25;5.50;;;;;11.97;60.62;101658.69;5031532;28;46869;-57
2022/10/12 04:04:13;;;;;;;;;8.33;6.00;;;;;11.96;60.68;101648.97;5025706;28;45456;-56
2022/10/12 04:06:38;;;;;;;;;8.50;6.00;;;;;11.93;60.63;101643.78;5016896;28;45530;-59
2022/10/12 04:09:04;;;;;;;;;8.25;7.50;;;;;11.91;61.19;101649.19;5015762;28;45862;-57
2022/10/12 04:11:29;;;;;;;;;8.25;7.50;;;;;11.93;60.78;101646.44;5018709;28;45343;-57
2022/10/12 04:13:54;;;;;;;;;7.00;5.50;;;;;11.89;61.16;101650.19;5015780;28;45545;-58
2022/10/12 04:16:20;;;;;;;;;9.00;7.50;;;;;11.82;61.12;101663.75;5015579;28;45257;-55
2022/10/12 04:18:46;;;;;;;;;11.00;7.50;;;;;11.76;61.40;101644.50;5014650;28;46984;-57
2022/10/12 04:21:13;;;;;;;;;8.25;7.50;;;;;11.80;61.20;101652.31;5016002;28;45430;-56
2022/10/12 04:23:39;;;;;;;;;10.25;8.25;;;;;11.82;60.96;101662.91;5027206;28;45576;-57
2022/10/12 04:26:05;;;;;;;;;9.00;9.00;;;;;11.81;61.33;101664.72;5019196;28;45405;-57
2022/10/12 04:28:30;;;;;;;;;8.75;7.75;;;;;11.77;61.83;101668.41;5015147;28;45534;-58
2022/10/12 04:30:56;;;;;;;;;10.50;8.50;;;;;11.61;62.28;101662.03;5023483;28;45428;-57
2022/10/12 04:33:21;;;;;;;;;9.50;7.75;;;;;11.60;61.87;101670.09;5013861;28;45462;-56
2022/10/12 04:35:46;;;;;;;;;9.00;8.00;;;;;11.54;62.48;101665.88;5027565;28;45342;-57
2022/10/12 04:38:12;;;;;;;;;11.25;8.25;;;;;11.49;62.35;101679.41;5019405;28;45390;-59
2022/10/12 04:40:38;;;;;;;;;12.50;8.50;;;;;11.41;62.54;101680.66;5027593;28;45236;-57
2022/10/12 04:43:03;;;;;;;;;8.00;6.50;;;;;11.37;62.41;101674.59;5020857;28;45529;-60
2022/10/12 04:45:29;;;;;;;;;7.50;7.50;;;;;11.37;62.68;101679.91;5022035;28;45451;-55
2022/10/12 04:47:54;;;;;;;;;6.75;6.00;;;;;11.37;62.66;101665.75;5018505;28;45435;-56
2022/10/12 04:50:22;;;;;;;;;10.25;7.25;;;;;11.38;62.31;101657.69;5033727;28;45434;-58
2022/10/12 04:52:48;;;;;;;;;7.75;7.75;;;;;11.40;62.98;101665.59;5033656;28;45326;-57
2022/10/12 04:55:13;;;;;;;;;7.75;7.00;;;;;11.41;62.55;101675.31;5024424;28;45671;-58
2022/10/12 04:57:39;;;;;;;;;11.50;7.50;;;;;11.36;62.49;101656.88;5027091;28;45442;-58
2022/10/12 05:00:05;;;;;;;;;10.00;8.00;;;;;11.37;62.82;101663.06;5022063;28;45586;-58
2022/10/12 05:02:31;;;;;;;;;9.50;6.75;;;;;11.36;63.14;101656.03;5023254;28;45205;-58
2022/10/12 05:04:57;;;;;;;;;8.25;8.25;;;;;11.34;62.48;101658.75;5032281;28;45232;-60
2022/10/12 05:07:22;;;;;;;;;12.50;11.25;;;;;11.32;62.77;101657.06;5026813;28;45403;-60
2022/10/12 05:09:48;;;;;;;;;8.50;7.25;;;;;11.31;62.96;101650.00;5033449;28;45358;-58
2022/10/12 05:12:13;;;;;;;;;8.50;8.50;;;;;11.36;63.07;101656.03;5026811;28;45473;-58
2022/10/12 05:14:38;;;;;;;;;10.00;4.50;;;;;11.38;62.64;101665.66;5024586;28;45366;-58
2022/10/12 05:17:04;;;;;;;;;8.75;8.75;;;;;11.36;63.08;101658.69;5033363;28;48371;-57
2022/10/12 05:19:29;;;;;;;;;9.00;7.75;;;;;11.35;63.13;101652.50;5021288;28;45224;-60
2022/10/12 05:21:55;;;;;;;;;8.75;6.00;;;;;11.34;62.84;101652.56;5018773;28;45227;-59
2022/10/12 05:24:20;;;;;;;;;10.50;9.75;;;;;11.30;63.26;101662.44;5036694;28;45590;-54
2022/10/12 05:26:45;;;;;;;;;12.50;12.50;;;;;11.27;63.31;101667.03;5030900;28;46033;-59
2022/10/12 05:29:11;;;;;;;;;23.25;16.25;;;;;11.22;64.10;101670.78;5036834;28;45501;-60
2022/10/12 05:31:36;;;;;;;;;15.00;13.75;;;;;11.14;63.64;101661.38;5028628;28;45741;-58
2022/10/12 05:34:01;;;;;;;;;11.25;9.00;;;;;11.12;64.14;101673.88;5022239;28;54447;-56
2022/10/12 05:36:27;;;;;;;;;13.75;13.00;;;;;11.09;63.74;101663.38;5017531;28;46918;-57
2022/10/12 05:38:52;;;;;;;;;12.25;11.00;;;;;11.16;63.38;101672.81;5036000;28;45446;-57
2022/10/12 05:41:17;;;;;;;;;12.75;12.75;;;;;11.12;63.54;101658.78;5027552;28;45387;-55
2022/10/12 05:43:43;;;;;;;;;11.25;11.25;;;;;11.20;63.32;101672.66;5018404;28;45264;-58
2022/10/12 05:46:08;;;;;;;;;13.00;10.75;;;;;11.18;63.32;101665.63;5012655;28;46086;-54
2022/10/12 05:48:34;;;;;;;;;13.75;11.25;;;;;11.21;63.02;101665.53;5029850;28;45629;-57
2022/10/12 05:50:59;;;;;;;;;13.00;11.50;;;;;11.21;63.43;101674.38;5021810;28;45300;-58
2022/10/12 05:53:24;;;;;;;;;12.00;12.00;;;;;11.22;63.39;101665.44;5018510;28;45556;-57
2022/10/12 05:55:58;;;;;;;;;11.00;11.00;;;;;11.19;63.46;101660.22;5018257;28;46184;-60
2022/10/12 05:58:26;;;;;;;;;17.00;13.75;;;;;11.17;63.69;101656.78;5013559;28;45284;-59
2022/10/12 06:00:51;;;;;;;;;13.75;12.00;;;;;11.14;63.71;101664.03;5030195;28;45640;-58
2022/10/12 06:03:17;;;;;;;;;12.50;12.50;;;;;11.11;64.14;101650.84;5018591;28;45348;-56
2022/10/12 06:05:43;;;;;;;;;15.75;12.25;;;;;11.12;64.21;101653.44;5029940;28;46066;-55
2022/10/12 06:08:09;;;;;;;;;13.50;13.50;;;;;11.06;64.12;101652.81;5038470;28;45263;-58
2022/10/12 06:10:43;;;;;;;;;6.75;5.00;;;;;11.09;64.07;101652.72;5026633;28;45289;-58
2022/10/12 06:13:08;;;;;;;;;12.75;12.50;;;;;11.08;63.85;101656.31;5025521;28;45599;-58
2022/10/12 06:15:35;;;;;;;;;14.25;12.75;;;;;11.01;64.57;101650.34;5027572;28;47867;-58
2022/10/12 06:18:00;;;;;;;;;16.50;14.25;;;;;11.07;64.58;101655.44;5017404;28;45311;-60
2022/10/12 06:20:25;;;;;;;;;19.25;12.50;;;;;11.01;63.78;101654.81;5017440;28;45283;-60
2022/10/12 06:22:51;;;;;;;;;12.25;10.50;;;;;11.05;64.07;101669.72;5019072;28;45165;-56
2022/10/12 06:25:16;;;;;;;;;15.50;13.00;;;;;11.05;64.46;101670.59;5016980;28;45489;-57
2022/10/12 06:27:43;;;;;;;;;14.75;13.25;;;;;11.06;64.53;101680.31;5027902;28;45434;-56
2022/10/12 06:30:10;;;;;;;;;18.25;16.50;;;;;11.07;63.76;101674.06;5027705;28;45486;-56
2022/10/12 06:32:35;;;;;;;;;14.25;14.25;;;;;11.03;64.08;101668.91;5015822;28;45627;-58
2022/10/12 06:35:01;;;;;;;;;18.00;17.25;;;;;11.08;64.00;101677.59;5015649;28;45288;-58
2022/10/12 06:37:28;;;;;;;;;13.00;11.25;;;;;11.08;63.58;101675.81;5017301;28;45376;-56
2022/10/12 06:39:54;;;;;;;;;65.25;47.00;;;;;11.17;64.13;101688.72;5017130;28;45418;-57
2022/10/12 06:42:20;;;;;;;;;17.50;11.75;;;;;11.19;64.06;101692.19;5017163;28;45724;-59
2022/10/12 06:44:45;;;;;;;;;14.50;11.75;;;;;11.20;63.96;101685.09;5016165;28;45921;-55
2022/10/12 06:47:11;;;;;;;;;15.75;9.50;;;;;11.23;63.72;101680.50;5026924;28;45257;-56
2022/10/12 06:49:36;;;;;;;;;12.25;9.50;;;;;11.30;63.60;101698.88;5018624;28;45430;-58
2022/10/12 06:52:02;;;;;;;;;17.75;12.50;;;;;11.31;63.39;101689.94;5017731;28;45566;-54
2022/10/12 06:54:27;;;;;;;;;17.00;16.00;;;;;11.36;63.97;101696.84;5017097;28;45472;-60
2022/10/12 06:56:53;;;;;;;;;17.50;13.25;;;;;11.38;63.56;101694.09;5012965;28;45442;-63
2022/10/12 06:59:21;;;;;;;;;13.25;13.25;;;;;11.43;63.28;101700.97;5029103;28;45549;-64
2022/10/12 07:01:47;;;;;;;;;16.75;12.00;;;;;11.50;63.05;101698.91;5016553;28;45352;-60
2022/10/12 07:04:13;;;;;;;;;12.25;11.25;;;;;11.45;62.98;101695.56;5031632;28;47000;-56
2022/10/12 07:06:38;;;;;;;;;18.75;16.25;;;;;11.58;63.73;101710.09;5017467;28;45202;-58
2022/10/12 07:09:04;;;;;;;;;17.50;15.25;;;;;11.64;63.79;101704.53;5018062;28;45212;-60
2022/10/12 07:11:29;;;;;;;;;26.50;16.50;;;;;11.70;63.69;101706.91;5016230;28;45665;-59
2022/10/12 07:13:56;;;;;;;;;17.00;17.00;;;;;11.72;63.45;101693.53;5027270;28;45923;-58
2022/10/12 07:16:22;;;;;;;;;20.00;17.50;;;;;11.82;63.49;101702.88;5014808;28;45992;-56
2022/10/12 07:18:47;;;;;;;;;19.00;16.75;;;;;11.81;62.83;101701.16;5012525;28;46832;-57
2022/10/12 07:21:13;;;;;;;;;17.50;17.00;;;;;11.82;63.01;101703.75;5015619;28;45550;-57
2022/10/12 07:23:42;;;;;;;;;20.00;18.75;;;;;11.85;63.41;101708.09;5010927;28;45415;-57
2022/10/12 07:26:07;;;;;;;;;21.75;18.00;;;;;11.88;63.09;101709.75;5008357;28;46070;-52
2022/10/12 07:28:36;;;;;;;;;19.75;18.50;;;;;11.82;63.24;101702.88;5016065;28;45451;-59
2022/10/12 07:31:04;;;;;;;;;19.50;16.75;;;;;11.85;63.35;101707.22;5019414;28;45680;-56
2022/10/12 07:33:31;;;;;;;;;18.25;18.00;;;;;11.95;62.77;101709.41;5021840;28;46237;-56
2022/10/12 07:35:57;;;;;;;;;26.00;20.25;;;;;11.93;62.72;101705.94;5027526;28;45382;-58
2022/10/12 07:38:22;;;;;;;;;20.75;20.00;;;;;12.00;62.85;101719.91;5019800;28;45430;-56
2022/10/12 07:40:48;;;;;;;;;24.50;21.00;;;;;12.05;62.65;101720.53;5007648;28;45592;-58
2022/10/12 07:43:13;;;;;;;;;22.25;21.50;;;;;12.04;62.93;101725.00;5012248;28;46020;-61
2022/10/12 07:45:40;;;;;;;;;25.25;20.25;;;;;12.02;62.88;101723.34;5015397;28;45402;-59
2022/10/12 07:48:05;;;;;;;;;28.50;22.00;;;;;12.07;62.88;101737.34;5013424;28;45586;-58
2022/10/12 07:50:31;;;;;;;;;19.50;18.25;;;;;12.02;63.18;101723.34;5025346;28;45450;-60
2022/10/12 07:52:56;;;;;;;;;25.75;23.25;;;;;12.03;63.09;101723.28;5027108;28;45654;-58
2022/10/12 07:55:22;;;;;;;;;28.50;21.50;;;;;12.09;62.73;101732.78;5024201;28;45411;-56
2022/10/12 07:57:47;;;;;;;;;21.50;18.50;;;;;12.14;62.96;101735.28;5036441;28;45453;-61
2022/10/12 08:00:13;;;;;;;;;20.00;19.50;;;;;12.15;62.90;101740.53;5052006;28;45571;-58
2022/10/12 08:02:39;;;;;;;;;25.75;23.25;;;;;12.17;62.85;101735.13;5033645;28;45357;-57
2022/10/12 08:05:05;;;;;;;;;31.00;26.50;;;;;12.16;63.34;101739.59;5014718;28;45557;-61
2022/10/12 08:07:30;;;;;;;;;24.25;19.00;;;;;12.11;63.18;101728.28;5023237;28;45572;-57
2022/10/12 08:09:56;;;;;;;;;32.25;28.00;;;;;12.19;63.16;101739.47;5036358;28;45588;-60
2022/10/12 08:12:21;;;;;;;;;25.00;23.50;;;;;12.23;63.42;101734.84;5035396;28;45899;-55
2022/10/12 08:14:47;;;;;;;;;30.00;27.00;;;;;12.25;63.33;101746.34;5033551;28;45386;-60
2022/10/12 08:17:12;;;;;;;;;32.25;27.75;;;;;12.28;62.67;101738.19;5019067;28;45722;-61
2022/10/12 08:19:38;;;;;;;;;29.25;24.75;;;;;12.37;63.08;101752.00;5015325;28;45680;-62
2022/10/12 08:22:03;;;;;;;;;32.25;26.75;;;;;12.39;62.39;101746.59;5014283;28;45630;-61
2022/10/12 08:24:29;;;;;;;;;32.75;24.00;;;;;12.48;62.29;101742.63;5013804;28;45479;-61
2022/10/12 08:26:54;;;;;;;;;34.00;25.00;;;;;12.45;62.31;101732.09;5015048;28;45364;-62
2022/10/12 08:29:20;;;;;;;;;26.25;25.25;;;;;12.47;62.76;101727.53;5015634;28;45403;-59
2022/10/12 08:31:48;;;;;;;;;33.00;28.25;;;;;12.70;62.08;101746.03;5016425;28;45324;-57
2022/10/12 08:34:13;;;;;;;;;28.50;25.00;;;;;12.78;61.96;101741.22;5016477;28;45312;-60
2022/10/12 08:36:39;;;;;;;;;33.25;25.25;;;;;12.85;61.81;101742.63;5014436;28;45431;-60
2022/10/12 08:39:05;;;;;;;;;28.25;26.75;;;;;12.82;61.53;101724.09;5016301;28;45316;-57
2022/10/12 08:42:00;;;;;;;;;28.25;26.50;;;;;12.92;61.59;101724.53;5017231;28;46260;-60
2022/10/12 08:44:32;;;;;;;;;32.00;30.25;;;;;13.12;61.37;101739.59;5017927;28;45461;-60
2022/10/12 08:47:02;;;;;;;;;35.75;29.50;;;;;13.20;61.15;101734.78;5036167;28;45505;-60
2022/10/12 08:49:30;;;;;;;;;28.25;26.50;;;;;13.28;60.73;101740.59;5024317;28;45244;-62
2022/10/12 08:51:58;;;;;;;;;27.75;24.25;;;;;13.38;60.62;101739.22;5035719;28;45391;-58
2022/10/12 08:54:31;;;;;;;;;30.00;29.75;;;;;13.44;60.04;101746.94;5032415;28;45454;-61
2022/10/12 08:56:57;;;;;;;;;32.25;31.75;;;;;13.50;59.95;101738.59;5016185;28;45234;-59
2022/10/12 08:59:22;;;;;;;;;40.50;35.00;;;;;13.63;59.67;101749.53;5019305;28;45576;-59
2022/10/12 09:02:18;;;;;;;;;29.00;27.75;;;;;13.75;59.71;101756.94;5014023;28;46031;-60
2022/10/12 09:04:55;;;;;;;;;25.75;24.25;;;;;13.89;59.33;101756.25;5026504;28;45333;-58
2022/10/12 09:07:30;;;;;;;;;28.00;24.50;;;;;13.99;58.93;101746.81;5013193;28;45516;-59
2022/10/12 09:09:58;;;;;;;;;33.75;30.75;;;;;14.06;59.00;101753.59;4995748;28;45569;-61
2022/10/12 09:12:45;;;;;;;;;37.00;30.00;;;;;14.14;58.61;101748.69;5005089;28;45431;-64
2022/10/12 09:15:19;;;;;;;;;25.50;21.50;;;;;14.23;58.55;101741.13;5015377;28;45423;-58
2022/10/12 09:17:52;;;;;;;;;30.00;30.00;;;;;14.36;58.66;101742.19;5015100;28;45722;-59
2022/10/12 09:20:19;;;;;;;;;18.00;16.75;;;;;14.44;58.58;101737.31;5015201;28;45304;-58
2022/10/12 09:22:49;;;;;;;;;35.25;27.00;;;;;14.50;58.37;101733.47;5014761;28;46094;-61
2022/10/12 09:25:16;;;;;;;;;28.75;28.00;;;;;14.51;58.19;101717.31;5000825;28;45331;-61
2022/10/12 09:27:45;;;;;;;;;39.50;34.00;;;;;14.66;58.13;101721.81;4995363;28;45518;-63
2022/10/12 09:30:19;;;;;;;;;35.00;31.50;;;;;14.77;58.05;101723.03;5011166;28;45483;-63
2022/10/12 09:33:06;;;;;;;;;45.75;34.75;;;;;14.92;57.79;101724.84;5020518;28;45322;-55
2022/10/12 09:35:32;;;;;;;;;38.00;34.00;;;;;15.04;57.46;101721.50;5009974;28;45510;-58
2022/10/12 09:37:59;;;;;;;;;35.00;32.00;;;;;15.14;57.09;101722.69;4995371;28;45415;-59
2022/10/12 09:40:30;;;;;;;;;34.00;30.25;;;;;15.20;56.75;101711.63;5000492;28;45477;-61
2022/10/12 09:42:58;;;;;;;;;32.75;29.75;;;;;15.32;56.75;101710.03;5017964;28;46066;-57
2022/10/12 09:45:24;;;;;;;;;43.00;34.25;;;;;15.40;56.67;101698.88;5015425;28;45438;-61
2022/10/12 09:48:28;;;;;;;;;43.00;36.00;;;;;15.55;56.98;101712.25;4997332;28;45455;-57
2022/10/12 09:50:59;;;;;;;;;41.25;31.25;;;;;15.63;56.06;101710.03;5015864;28;45397;-54
2022/10/12 09:53:47;;;;;;;;;28.33;27.00;;;;;15.74;55.58;101706.69;5015512;28;45424;-57
2022/10/12 09:56:25;;;;;;;;;34.67;32.67;;;;;15.82;56.67;101709.78;5009793;28;45522;-57
2022/10/12 09:58:58;;;;;;;;;34.00;30.00;;;;;15.88;55.94;101708.53;5018455;28;45425;-66
2022/10/12 10:01:30;;;;;;;;;45.50;33.00;;;;;15.91;56.13;101700.31;5017882;28;45609;-59
2022/10/12 10:04:10;;;;;;;;;44.33;35.00;;;;;16.05;55.91;101704.84;5002714;28;46268;-57
2022/10/12 10:06:39;;;;;;;;;44.25;36.75;;;;;16.15;56.02;101700.63;5009837;28;45522;-60
2022/10/12 10:09:04;;;;;;;;;49.75;36.50;;;;;16.28;55.98;101695.38;5018735;28;45414;-61
2022/10/12 10:11:31;;;;;;;;;43.75;35.25;;;;;16.37;56.22;101695.63;5017846;28;45729;-59
2022/10/12 10:13:59;;;;;;;;;36.25;33.50;;;;;16.49;55.85;101697.56;5018815;28;45409;-59
2022/10/12 10:16:27;;;;;;;;;43.25;36.25;;;;;16.57;55.33;101686.34;5019399;28;45434;-60
2022/10/12 10:18:53;;;;;;;;;39.25;33.50;;;;;16.64;54.75;101687.66;5024275;28;45275;-54
2022/10/12 10:21:29;;;;;;;;;36.75;33.00;;;;;16.66;54.88;101682.19;5022929;28;45854;-61
2022/10/12 10:24:06;;;;;;;;;39.67;32.67;;;;;16.79;55.19;101692.06;5038216;28;46064;-61
2022/10/12 10:26:54;;;;;;;;;37.33;29.67;;;;;16.93;55.50;101682.28;5020518;28;46027;-60
2022/10/12 10:29:29;;;;;;;;;41.67;33.00;;;;;17.07;55.00;101685.78;5015528;28;45509;-61
2022/10/12 10:32:28;;;;;;;;;32.67;32.00;;;;;17.19;55.92;101685.91;5008055;28;45400;-59
2022/10/12 10:35:12;;;;;;;;;27.00;23.33;;;;;17.31;56.89;101685.09;5026627;28;45439;-60
2022/10/12 10:37:44;;;;;;;;;27.00;26.33;;;;;17.42;56.39;101684.38;5023689;28;45471;-59
2022/10/12 10:40:21;;;;;;;;;25.67;22.67;;;;;17.47;56.55;101682.25;5014425;28;45514;-65
2022/10/12 10:43:15;;;;;;;;;28.33;26.67;;;;;17.58;56.27;101674.31;5042894;28;45611;-58
2022/10/12 10:46:03;;;;;;;;;28.67;25.67;;;;;17.87;56.24;101680.41;5006369;28;45509;-60
2022/10/12 10:49:00;;;;;;;;;29.00;24.67;;;;;18.00;55.28;101677.72;5017165;28;45351;-60
2022/10/12 10:51:50;;;;;;;;;23.33;23.33;;;;;18.22;54.17;101670.69;5016036;28;45686;-63
2022/10/12 10:54:26;;;;;;;;;30.67;26.67;;;;;18.11;54.83;101672.47;5007218;28;45537;-61
2022/10/12 10:57:17;;;;;;;;;30.67;24.33;;;;;18.21;54.75;101666.28;5012549;28;45489;-62
2022/10/12 10:59:58;;;;;;;;;30.67;27.00;;;;;18.40;54.11;101652.38;5037289;28;45678;-62
2022/10/12 11:02:37;;;;;;;;;32.67;27.00;;;;;18.56;53.63;101668.28;5026607;28;45573;-62
2022/10/12 11:05:30;;;;;;;;;28.33;24.33;;;;;18.84;53.37;101668.03;5037106;28;45621;-63
2022/10/12 11:08:16;;;;;;;;;31.67;25.00;;;;;19.06;51.48;101661.06;5031517;28;45706;-59
2022/10/12 11:10:46;;;;;;;;;25.67;23.00;;;;;19.01;51.54;101663.22;5023999;28;45476;-59
2022/10/12 11:13:20;;;;;;;;;30.33;26.67;;;;;19.04;52.56;101665.72;4998188;28;45590;-61
2022/10/12 11:16:04;;;;;;;;;26.00;21.00;;;;;19.06;51.43;101669.16;5020077;28;45541;-63
2022/10/12 11:18:37;;;;;;;;;21.33;19.33;;;;;19.09;51.51;101664.38;5011696;28;45757;-65
2022/10/12 11:21:12;;;;;;;;;22.33;20.33;;;;;19.02;51.59;101655.03;4996773;28;45370;-61
2022/10/12 11:23:53;;;;;;;;;18.67;15.00;;;;;19.12;51.85;101660.59;4996138;28;45366;-61
2022/10/12 11:26:54;;;;;;;;;18.33;16.67;;;;;19.08;51.72;101651.88;5032786;28;45604;-65
2022/10/12 11:29:19;;;;;;;;;25.67;23.67;;;;;19.11;51.71;101650.78;5031062;28;45388;-61